PTN56K LPFR-LPCS
Flight info
| Callsign | PTN56K |
|---|---|
| Flight time | 0h 26m |
| Altitude | 28000 |
| Route | ODEMI2V ODEMI DCT VATZI VATZI1R |
| Aircraft | PC24/M-SBDGIRWY/LB2 |
Departure
| Time | 2026-05-07 19:20 |
|---|---|
| Airport | Faro - Gago Coutinho International Airport (LPFR) |
Arrival
| Time | 2026-05-07 19:46 |
|---|---|
| Airport | Cascais Airport (LPCS) |
| Time | Latitude | Longitude | Altitude | Speed | Heading |
|---|---|---|---|---|---|
| 2026-05-07 19:01 | 37.01783 | -7.97259 | 16 ft | 0 kts | 160° |
| 2026-05-07 19:12 | 37.01805 | -7.97269 | 16 ft | 4 kts | 157° |
| 2026-05-07 19:12 | 37.01829 | -7.97283 | 16 ft | 4 kts | 145° |
| 2026-05-07 19:13 | 37.01847 | -7.97306 | 16 ft | 4 kts | 105° |
| 2026-05-07 19:13 | 37.01848 | -7.97312 | 16 ft | 0 kts | 98° |
| 2026-05-07 19:15 | 37.01844 | -7.97293 | 16 ft | 6 kts | 102° |
| 2026-05-07 19:15 | 37.01831 | -7.97198 | 16 ft | 16 kts | 99° |
| 2026-05-07 19:16 | 37.01811 | -7.97055 | 16 ft | 17 kts | 100° |
| 2026-05-07 19:16 | 37.01789 | -7.96910 | 16 ft | 16 kts | 113° |
| 2026-05-07 19:16 | 37.01695 | -7.96903 | 16 ft | 14 kts | 171° |
| 2026-05-07 19:16 | 37.01659 | -7.96811 | 16 ft | 13 kts | 100° |
| 2026-05-07 19:17 | 37.01644 | -7.96705 | 16 ft | 12 kts | 101° |
| 2026-05-07 19:17 | 37.01629 | -7.96598 | 16 ft | 15 kts | 100° |
| 2026-05-07 19:17 | 37.01610 | -7.96470 | 16 ft | 15 kts | 100° |
| 2026-05-07 19:17 | 37.01591 | -7.96343 | 16 ft | 15 kts | 100° |
| 2026-05-07 19:18 | 37.01573 | -7.96218 | 16 ft | 14 kts | 100° |
| 2026-05-07 19:18 | 37.01554 | -7.96084 | 16 ft | 18 kts | 100° |
| 2026-05-07 19:18 | 37.01531 | -7.95908 | 16 ft | 16 kts | 102° |
| 2026-05-07 19:18 | 37.01462 | -7.95837 | 16 ft | 11 kts | 189° |
| 2026-05-07 19:19 | 37.01446 | -7.95841 | 16 ft | 0 kts | 190° |
| 2026-05-07 19:19 | 37.01398 | -7.95851 | 16 ft | 12 kts | 189° |
| 2026-05-07 19:20 | 37.01352 | -7.95928 | 16 ft | 18 kts | 281° |
| 2026-05-07 19:20 | 37.01433 | -7.96518 | 28 ft | 116 kts | 278° |
| 2026-05-07 19:20 | 37.01609 | -7.97717 | 652 ft | 154 kts | 281° |
| 2026-05-07 19:20 | 37.01830 | -7.99057 | 1970 ft | 160 kts | 284° |
| 2026-05-07 19:21 | 37.02021 | -8.00471 | 3265 ft | 175 kts | 281° |
| 2026-05-07 19:21 | 37.02254 | -8.02091 | 4324 ft | 202 kts | 279° |
| 2026-05-07 19:21 | 37.02513 | -8.03885 | 5562 ft | 216 kts | 278° |
| 2026-05-07 19:21 | 37.02791 | -8.05790 | 6739 ft | 230 kts | 279° |
| 2026-05-07 19:22 | 37.03080 | -8.07760 | 8265 ft | 224 kts | 278° |
| 2026-05-07 19:22 | 37.03353 | -8.09651 | 9753 ft | 223 kts | 278° |
| 2026-05-07 19:22 | 37.04083 | -8.11378 | 10986 ft | 234 kts | 314° |
| 2026-05-07 19:22 | 37.05398 | -8.12639 | 12164 ft | 242 kts | 319° |
| 2026-05-07 19:23 | 37.06661 | -8.14044 | 13414 ft | 244 kts | 310° |
| 2026-05-07 19:23 | 37.07817 | -8.15625 | 14531 ft | 248 kts | 306° |
| 2026-05-07 19:23 | 37.08974 | -8.17248 | 15642 ft | 251 kts | 306° |
| 2026-05-07 19:23 | 37.10172 | -8.18871 | 16747 ft | 256 kts | 306° |
| 2026-05-07 19:24 | 37.11400 | -8.20508 | 17856 ft | 260 kts | 305° |
| 2026-05-07 19:24 | 37.12643 | -8.22178 | 18827 ft | 264 kts | 305° |
| 2026-05-07 19:24 | 37.13897 | -8.23867 | 19769 ft | 267 kts | 305° |
| 2026-05-07 19:24 | 37.15225 | -8.25564 | 20416 ft | 288 kts | 314° |
| 2026-05-07 19:25 | 37.17057 | -8.26923 | 20683 ft | 324 kts | 329° |
| 2026-05-07 19:25 | 37.19170 | -8.28134 | 20885 ft | 350 kts | 330° |
| 2026-05-07 19:25 | 37.21411 | -8.29587 | 20974 ft | 375 kts | 325° |
| 2026-05-07 19:25 | 37.23695 | -8.31336 | 21158 ft | 392 kts | 323° |
| 2026-05-07 19:26 | 37.26043 | -8.33113 | 21921 ft | 394 kts | 325° |
| 2026-05-07 19:26 | 37.28454 | -8.34810 | 22596 ft | 399 kts | 326° |
| 2026-05-07 19:26 | 37.30896 | -8.36529 | 23181 ft | 403 kts | 325° |
| 2026-05-07 19:26 | 37.33335 | -8.38318 | 23705 ft | 407 kts | 324° |
| 2026-05-07 19:27 | 37.35806 | -8.40148 | 23930 ft | 418 kts | 324° |
| 2026-05-07 19:27 | 37.38354 | -8.41991 | 23943 ft | 419 kts | 326° |
| 2026-05-07 19:27 | 37.40855 | -8.43768 | 23936 ft | 408 kts | 325° |
| 2026-05-07 19:27 | 37.43314 | -8.45558 | 23948 ft | 410 kts | 325° |
| 2026-05-07 19:28 | 37.45787 | -8.47370 | 23940 ft | 411 kts | 325° |
| 2026-05-07 19:28 | 37.48262 | -8.49179 | 23940 ft | 412 kts | 325° |
| 2026-05-07 19:28 | 37.50743 | -8.50981 | 23946 ft | 412 kts | 325° |
| 2026-05-07 19:28 | 37.53228 | -8.52783 | 23946 ft | 412 kts | 325° |
| 2026-05-07 19:29 | 37.55709 | -8.54600 | 23947 ft | 412 kts | 325° |
| 2026-05-07 19:29 | 37.58191 | -8.56412 | 23876 ft | 414 kts | 325° |
| 2026-05-07 19:29 | 37.60660 | -8.58214 | 23366 ft | 415 kts | 325° |
| 2026-05-07 19:29 | 37.63134 | -8.60017 | 22803 ft | 406 kts | 325° |
| 2026-05-07 19:30 | 37.65559 | -8.61790 | 22272 ft | 401 kts | 325° |
| 2026-05-07 19:30 | 37.67965 | -8.63555 | 21746 ft | 398 kts | 325° |
| 2026-05-07 19:30 | 37.70344 | -8.65302 | 21224 ft | 395 kts | 325° |
| 2026-05-07 19:30 | 37.72721 | -8.67042 | 20708 ft | 393 kts | 325° |
| 2026-05-07 19:31 | 37.75082 | -8.68775 | 20191 ft | 391 kts | 325° |
| 2026-05-07 19:31 | 37.77430 | -8.70500 | 19675 ft | 388 kts | 325° |
| 2026-05-07 19:31 | 37.79754 | -8.72207 | 19177 ft | 385 kts | 324° |
| 2026-05-07 19:31 | 37.82063 | -8.73904 | 18666 ft | 382 kts | 324° |
| 2026-05-07 19:32 | 37.84352 | -8.75590 | 18139 ft | 379 kts | 324° |
| 2026-05-07 19:32 | 37.86616 | -8.77257 | 17621 ft | 375 kts | 325° |
| 2026-05-07 19:32 | 37.88862 | -8.78913 | 17118 ft | 371 kts | 325° |
| 2026-05-07 19:32 | 37.91085 | -8.80553 | 16632 ft | 369 kts | 325° |
| 2026-05-07 19:33 | 37.93309 | -8.82195 | 16145 ft | 368 kts | 326° |
| 2026-05-07 19:33 | 37.95528 | -8.83834 | 15658 ft | 368 kts | 326° |
| 2026-05-07 19:33 | 37.97737 | -8.85468 | 15178 ft | 367 kts | 326° |
| 2026-05-07 19:33 | 37.99939 | -8.87095 | 14692 ft | 365 kts | 327° |
| 2026-05-07 19:34 | 38.02125 | -8.88713 | 14213 ft | 363 kts | 327° |
| 2026-05-07 19:34 | 38.04299 | -8.90322 | 13729 ft | 361 kts | 327° |
| 2026-05-07 19:34 | 38.06460 | -8.91926 | 13226 ft | 358 kts | 327° |
| 2026-05-07 19:34 | 38.08568 | -8.93487 | 12762 ft | 354 kts | 327° |
| 2026-05-07 19:35 | 38.10690 | -8.95064 | 12307 ft | 351 kts | 327° |
| 2026-05-07 19:35 | 38.12795 | -8.96626 | 11823 ft | 349 kts | 327° |
| 2026-05-07 19:35 | 38.14885 | -8.98180 | 11368 ft | 346 kts | 327° |
| 2026-05-07 19:35 | 38.16958 | -8.99722 | 11045 ft | 340 kts | 328° |
| 2026-05-07 19:36 | 38.18995 | -9.01236 | 11039 ft | 342 kts | 327° |
| 2026-05-07 19:36 | 38.21050 | -9.02770 | 11037 ft | 343 kts | 328° |
| 2026-05-07 19:36 | 38.23110 | -9.04303 | 11038 ft | 343 kts | 328° |
| 2026-05-07 19:36 | 38.25172 | -9.05842 | 11038 ft | 343 kts | 328° |
| 2026-05-07 19:37 | 38.27224 | -9.07370 | 10908 ft | 336 kts | 328° |
| 2026-05-07 19:37 | 38.29148 | -9.08805 | 10644 ft | 307 kts | 327° |
| 2026-05-07 19:37 | 38.30948 | -9.10149 | 9852 ft | 303 kts | 327° |
| 2026-05-07 19:37 | 38.32756 | -9.11505 | 8990 ft | 298 kts | 327° |
| 2026-05-07 19:38 | 38.34523 | -9.12826 | 8192 ft | 292 kts | 327° |
| 2026-05-07 19:38 | 38.36261 | -9.14127 | 7403 ft | 287 kts | 327° |
| 2026-05-07 19:38 | 38.37960 | -9.15397 | 6642 ft | 281 kts | 326° |
| 2026-05-07 19:38 | 38.39633 | -9.16652 | 5881 ft | 275 kts | 327° |
| 2026-05-07 19:39 | 38.41245 | -9.17859 | 5497 ft | 271 kts | 327° |
| 2026-05-07 19:39 | 38.42943 | -9.19141 | 5142 ft | 281 kts | 327° |
| 2026-05-07 19:39 | 38.44583 | -9.20364 | 4777 ft | 266 kts | 326° |
| 2026-05-07 19:39 | 38.45629 | -9.21145 | 4534 ft | 260 kts | 326° |
| 2026-05-07 19:40 | 38.47682 | -9.22686 | 4067 ft | 254 kts | 327° |
| 2026-05-07 19:40 | 38.49194 | -9.23836 | 3741 ft | 251 kts | 327° |
| 2026-05-07 19:40 | 38.50664 | -9.24937 | 3421 ft | 240 kts | 327° |
| 2026-05-07 19:40 | 38.52052 | -9.25973 | 3100 ft | 223 kts | 327° |
| 2026-05-07 19:41 | 38.53340 | -9.26947 | 2810 ft | 209 kts | 328° |
| 2026-05-07 19:41 | 38.54558 | -9.27866 | 2545 ft | 198 kts | 328° |
| 2026-05-07 19:41 | 38.55721 | -9.28740 | 2314 ft | 189 kts | 327° |
| 2026-05-07 19:41 | 38.56790 | -9.29542 | 2124 ft | 168 kts | 327° |
| 2026-05-07 19:42 | 38.57776 | -9.30169 | 1998 ft | 149 kts | 340° |
| 2026-05-07 19:42 | 38.58745 | -9.30496 | 1995 ft | 144 kts | 340° |
| 2026-05-07 19:42 | 38.59729 | -9.30873 | 2003 ft | 152 kts | 341° |
| 2026-05-07 19:42 | 38.60752 | -9.31246 | 2019 ft | 152 kts | 341° |
| 2026-05-07 19:43 | 38.61760 | -9.31611 | 2013 ft | 152 kts | 341° |
| 2026-05-07 19:43 | 38.62774 | -9.31978 | 2017 ft | 151 kts | 341° |
| 2026-05-07 19:43 | 38.63803 | -9.32354 | 1954 ft | 157 kts | 341° |
| 2026-05-07 19:43 | 38.64864 | -9.32739 | 1752 ft | 158 kts | 341° |
| 2026-05-07 19:44 | 38.65902 | -9.33116 | 1534 ft | 153 kts | 341° |
| 2026-05-07 19:44 | 38.66582 | -9.33362 | 1393 ft | 153 kts | 341° |
| 2026-05-07 19:44 | 38.67877 | -9.33833 | 1108 ft | 135 kts | 342° |
| 2026-05-07 19:44 | 38.68453 | -9.34041 | 992 ft | 122 kts | 339° |
| 2026-05-07 19:45 | 38.69216 | -9.34320 | 829 ft | 113 kts | 339° |
| 2026-05-07 19:45 | 38.69958 | -9.34594 | 709 ft | 106 kts | 341° |
| 2026-05-07 19:45 | 38.70648 | -9.34848 | 517 ft | 105 kts | 339° |
| 2026-05-07 19:45 | 38.71047 | -9.34981 | 482 ft | 111 kts | 341° |
| 2026-05-07 19:46 | 38.71779 | -9.35256 | 321 ft | 106 kts | 337° |
| 2026-05-07 19:46 | 38.72416 | -9.35494 | 302 ft | 80 kts | 343° |
| 2026-05-07 19:46 | 38.72761 | -9.35612 | 317 ft | 35 kts | 346° |
| 2026-05-07 19:46 | 38.72870 | -9.35655 | 325 ft | 2 kts | 250° |
| 2026-05-07 19:47 | 38.72866 | -9.35657 | 324 ft | 1 kts | 188° |
| 2026-05-07 19:47 | 38.72819 | -9.35636 | 321 ft | 16 kts | 164° |
| 2026-05-07 19:47 | 38.72687 | -9.35590 | 313 ft | 22 kts | 164° |
| 2026-05-07 19:47 | 38.72543 | -9.35560 | 307 ft | 15 kts | 227° |
| 2026-05-07 19:48 | 38.72542 | -9.35647 | 308 ft | 5 kts | 350° |
| 2026-05-07 19:48 | 38.72562 | -9.35653 | 309 ft | 1 kts | 347° |
| 2026-05-07 19:48 | 38.72589 | -9.35664 | 310 ft | 7 kts | 332° |
| 2026-05-07 19:48 | 38.72593 | -9.35709 | 310 ft | 6 kts | 256° |
| 2026-05-07 19:49 | 38.72600 | -9.35743 | 310 ft | 2 kts | 340° |
| 2026-05-07 19:49 | 38.72615 | -9.35747 | 311 ft | 0 kts | 349° |
| 2026-05-07 19:49 | 38.72619 | -9.35749 | 311 ft | 0 kts | 347° |